sensor_id;sensor_type;location;lat;lon;timestamp;pressure;altitude;pressure_sealevel;temperature;humidity
31911;BME280;18457;52.432;16.914;2022-07-29T00:01:57;100921.77;;;19.07;50.36
31911;BME280;18457;52.432;16.914;2022-07-29T00:04:30;100918.73;;;19.06;50.55
31911;BME280;18457;52.432;16.914;2022-07-29T00:07:02;100919.73;;;19.04;50.66
31911;BME280;18457;52.432;16.914;2022-07-29T00:09:34;100921.22;;;19.07;50.52
31911;BME280;18457;52.432;16.914;2022-07-29T00:12:23;100920.30;;;19.00;50.81
31911;BME280;18457;52.432;16.914;2022-07-29T00:14:57;100922.61;;;18.98;50.99
31911;BME280;18457;52.432;16.914;2022-07-29T00:17:28;100919.42;;;18.92;51.31
31911;BME280;18457;52.432;16.914;2022-07-29T00:20:00;100923.26;;;18.85;51.57
31911;BME280;18457;52.432;16.914;2022-07-29T00:22:32;100923.29;;;18.85;51.82
31911;BME280;18457;52.432;16.914;2022-07-29T00:25:05;100927.19;;;18.84;51.71
31911;BME280;18457;52.432;16.914;2022-07-29T00:27:37;100928.64;;;18.77;51.93
31911;BME280;18457;52.432;16.914;2022-07-29T00:30:10;100928.23;;;18.77;52.37
31911;BME280;18457;52.432;16.914;2022-07-29T00:32:40;100931.98;;;18.68;52.69
31911;BME280;18457;52.432;16.914;2022-07-29T00:35:13;100931.27;;;18.68;52.98
31911;BME280;18457;52.432;16.914;2022-07-29T00:38:03;100923.96;;;18.68;53.07
31911;BME280;18457;52.432;16.914;2022-07-29T00:40:35;100925.02;;;18.69;53.22
31911;BME280;18457;52.432;16.914;2022-07-29T00:43:13;100921.20;;;18.57;53.79
31911;BME280;18457;52.432;16.914;2022-07-29T00:45:46;100923.94;;;18.53;54.23
31911;BME280;18457;52.432;16.914;2022-07-29T00:48:17;100925.86;;;18.48;54.55
31911;BME280;18457;52.432;16.914;2022-07-29T00:50:50;100922.20;;;18.40;54.94
31911;BME280;18457;52.432;16.914;2022-07-29T00:53:22;100922.56;;;18.44;55.17
31911;BME280;18457;52.432;16.914;2022-07-29T00:55:57;100920.98;;;18.34;55.85
31911;BME280;18457;52.432;16.914;2022-07-29T00:58:29;100920.46;;;18.34;55.97
31911;BME280;18457;52.432;16.914;2022-07-29T01:01:01;100922.13;;;18.25;56.58
31911;BME280;18457;52.432;16.914;2022-07-29T01:03:32;100921.98;;;18.28;56.58
31911;BME280;18457;52.432;16.914;2022-07-29T01:06:05;100925.54;;;18.27;56.89
31911;BME280;18457;52.432;16.914;2022-07-29T01:08:35;100927.89;;;18.16;57.50
31911;BME280;18457;52.432;16.914;2022-07-29T01:11:08;100932.14;;;18.22;57.60
31911;BME280;18457;52.432;16.914;2022-07-29T01:13:40;100919.52;;;18.19;57.78
31911;BME280;18457;52.432;16.914;2022-07-29T01:16:18;100927.30;;;18.13;58.36
31911;BME280;18457;52.432;16.914;2022-07-29T01:18:56;100928.42;;;18.12;58.64
31911;BME280;18457;52.432;16.914;2022-07-29T01:21:49;100924.54;;;18.09;58.98
31911;BME280;18457;52.432;16.914;2022-07-29T01:24:53;100922.83;;;18.11;59.35
31911;BME280;18457;52.432;16.914;2022-07-29T01:27:44;100919.38;;;18.06;59.77
31911;BME280;18457;52.432;16.914;2022-07-29T01:30:19;100921.35;;;17.99;60.23
31911;BME280;18457;52.432;16.914;2022-07-29T01:32:56;100924.09;;;18.00;60.37
31911;BME280;18457;52.432;16.914;2022-07-29T01:35:35;100927.11;;;17.94;60.92
31911;BME280;18457;52.432;16.914;2022-07-29T01:38:15;100918.85;;;17.94;60.96
31911;BME280;18457;52.432;16.914;2022-07-29T01:40:51;100918.80;;;17.80;61.75
31911;BME280;18457;52.432;16.914;2022-07-29T01:43:31;100915.75;;;17.70;62.39
31911;BME280;18457;52.432;16.914;2022-07-29T01:46:08;100908.61;;;17.78;62.10
31911;BME280;18457;52.432;16.914;2022-07-29T01:48:43;100909.55;;;17.78;62.29
31911;BME280;18457;52.432;16.914;2022-07-29T01:51:20;100903.71;;;17.74;62.66
31911;BME280;18457;52.432;16.914;2022-07-29T01:54:02;100903.27;;;17.71;62.90
31911;BME280;18457;52.432;16.914;2022-07-29T01:56:37;100905.98;;;17.64;63.40
31911;BME280;18457;52.432;16.914;2022-07-29T01:59:11;100902.63;;;17.66;63.49
31911;BME280;18457;52.432;16.914;2022-07-29T02:01:44;100899.59;;;17.60;63.69
31911;BME280;18457;52.432;16.914;2022-07-29T02:04:18;100904.75;;;17.63;63.79
31911;BME280;18457;52.432;16.914;2022-07-29T02:07:02;100903.92;;;17.61;64.31
31911;BME280;18457;52.432;16.914;2022-07-29T02:09:37;100897.39;;;17.60;64.35
31911;BME280;18457;52.432;16.914;2022-07-29T02:12:12;100909.09;;;17.56;64.60
31911;BME280;18457;52.432;16.914;2022-07-29T02:14:48;100907.08;;;17.43;65.32
31911;BME280;18457;52.432;16.914;2022-07-29T02:17:25;100903.91;;;17.45;65.28
31911;BME280;18457;52.432;16.914;2022-07-29T02:20:02;100892.13;;;17.47;65.37
31911;BME280;18457;52.432;16.914;2022-07-29T02:22:37;100889.19;;;17.47;65.46
31911;BME280;18457;52.432;16.914;2022-07-29T02:25:10;100887.80;;;17.33;66.26
31911;BME280;18457;52.432;16.914;2022-07-29T02:27:44;100886.88;;;17.33;66.34
31911;BME280;18457;52.432;16.914;2022-07-29T02:30:19;100887.83;;;17.32;66.56
31911;BME280;18457;52.432;16.914;2022-07-29T02:32:54;100893.00;;;17.39;66.21
31911;BME280;18457;52.432;16.914;2022-07-29T02:35:27;100888.05;;;17.36;66.67
31911;BME280;18457;52.432;16.914;2022-07-29T02:38:04;100883.78;;;17.29;66.92
31911;BME280;18457;52.432;16.914;2022-07-29T02:40:55;100882.09;;;17.17;67.35
31911;BME280;18457;52.432;16.914;2022-07-29T02:43:29;100886.77;;;17.32;66.87
31911;BME280;18457;52.432;16.914;2022-07-29T02:46:03;100889.62;;;17.16;67.59
31911;BME280;18457;52.432;16.914;2022-07-29T02:49:01;100887.46;;;17.20;67.47
31911;BME280;18457;52.432;16.914;2022-07-29T02:51:41;100889.34;;;17.27;67.16
31911;BME280;18457;52.432;16.914;2022-07-29T02:54:22;100885.96;;;17.25;67.32
31911;BME280;18457;52.432;16.914;2022-07-29T02:56:54;100886.40;;;17.11;67.77
31911;BME280;18457;52.432;16.914;2022-07-29T02:59:32;100879.34;;;17.18;67.73
31911;BME280;18457;52.432;16.914;2022-07-29T03:02:06;100877.80;;;17.15;67.80
31911;BME280;18457;52.432;16.914;2022-07-29T03:04:41;100873.11;;;17.10;68.14
31911;BME280;18457;52.432;16.914;2022-07-29T03:07:15;100874.98;;;17.13;67.97
31911;BME280;18457;52.432;16.914;2022-07-29T03:09:50;100870.80;;;17.13;68.16
31911;BME280;18457;52.432;16.914;2022-07-29T03:12:23;100872.55;;;17.02;68.44
31911;BME280;18457;52.432;16.914;2022-07-29T03:14:56;100874.86;;;16.99;68.69
31911;BME280;18457;52.432;16.914;2022-07-29T03:17:29;100880.30;;;16.96;68.93
31911;BME280;18457;52.432;16.914;2022-07-29T03:20:03;100876.36;;;17.02;68.73
31911;BME280;18457;52.432;16.914;2022-07-29T03:22:40;100873.00;;;17.00;68.93
31911;BME280;18457;52.432;16.914;2022-07-29T03:25:15;100864.39;;;17.05;68.75
31911;BME280;18457;52.432;16.914;2022-07-29T03:27:49;100871.73;;;17.00;68.91
31911;BME280;18457;52.432;16.914;2022-07-29T03:30:22;100871.57;;;16.91;69.40
31911;BME280;18457;52.432;16.914;2022-07-29T03:32:54;100874.59;;;16.84;69.77
31911;BME280;18457;52.432;16.914;2022-07-29T03:35:28;100874.60;;;16.84;69.64
31911;BME280;18457;52.432;16.914;2022-07-29T03:38:02;100877.04;;;16.78;70.01
31911;BME280;18457;52.432;16.914;2022-07-29T03:40:35;100878.42;;;16.84;69.84
31911;BME280;18457;52.432;16.914;2022-07-29T03:43:11;100882.38;;;16.86;69.84
31911;BME280;18457;52.432;16.914;2022-07-29T03:45:48;100880.73;;;16.82;70.09
31911;BME280;18457;52.432;16.914;2022-07-29T03:48:22;100878.05;;;16.85;70.03
31911;BME280;18457;52.432;16.914;2022-07-29T03:50:56;100876.47;;;16.96;69.60
31911;BME280;18457;52.432;16.914;2022-07-29T03:53:28;100875.13;;;16.89;69.64
31911;BME280;18457;52.432;16.914;2022-07-29T03:56:03;100873.91;;;16.87;69.91
31911;BME280;18457;52.432;16.914;2022-07-29T03:58:36;100872.73;;;16.94;69.58
31911;BME280;18457;52.432;16.914;2022-07-29T04:01:07;100875.02;;;16.96;69.60
31911;BME280;18457;52.432;16.914;2022-07-29T04:03:40;100879.73;;;16.96;69.64
31911;BME280;18457;52.432;16.914;2022-07-29T04:06:12;100879.77;;;17.04;69.30
31911;BME280;18457;52.432;16.914;2022-07-29T04:08:44;100883.67;;;17.07;69.24
31911;BME280;18457;52.432;16.914;2022-07-29T04:11:16;100885.23;;;17.04;69.35
31911;BME280;18457;52.432;16.914;2022-07-29T04:13:48;100884.85;;;16.92;69.93
31911;BME280;18457;52.432;16.914;2022-07-29T04:16:20;100887.34;;;16.98;69.71
31911;BME280;18457;52.432;16.914;2022-07-29T04:18:52;100891.23;;;17.05;69.47
31911;BME280;18457;52.432;16.914;2022-07-29T04:21:24;100890.71;;;17.04;69.64
31911;BME280;18457;52.432;16.914;2022-07-29T04:23:56;100898.77;;;16.95;70.02
31911;BME280;18457;52.432;16.914;2022-07-29T04:26:28;100899.92;;;17.02;69.79
31911;BME280;18457;52.432;16.914;2022-07-29T04:29:00;100899.73;;;17.06;69.46
31911;BME280;18457;52.432;16.914;2022-07-29T04:31:31;100904.37;;;17.01;69.82
31911;BME280;18457;52.432;16.914;2022-07-29T04:34:03;100907.80;;;17.14;69.44
31911;BME280;18457;52.432;16.914;2022-07-29T04:36:36;100907.67;;;17.13;69.36
31911;BME280;18457;52.432;16.914;2022-07-29T04:39:07;100904.25;;;17.20;69.03
31911;BME280;18457;52.432;16.914;2022-07-29T04:41:40;100911.52;;;17.09;69.82
31911;BME280;18457;52.432;16.914;2022-07-29T04:44:13;100909.45;;;17.10;69.49
31911;BME280;18457;52.432;16.914;2022-07-29T04:46:46;100906.61;;;17.16;69.36
31911;BME280;18457;52.432;16.914;2022-07-29T04:49:18;100910.56;;;17.18;69.32
31911;BME280;18457;52.432;16.914;2022-07-29T04:51:51;100905.83;;;17.22;69.08
31911;BME280;18457;52.432;16.914;2022-07-29T04:54:23;100910.13;;;17.27;68.75
31911;BME280;18457;52.432;16.914;2022-07-29T04:56:55;100905.45;;;17.22;69.13
31911;BME280;18457;52.432;16.914;2022-07-29T04:59:27;100906.73;;;17.10;69.71
31911;BME280;18457;52.432;16.914;2022-07-29T05:01:59;100906.05;;;17.21;69.41
31911;BME280;18457;52.432;16.914;2022-07-29T05:04:31;100907.39;;;17.28;69.16
31911;BME280;18457;52.432;16.914;2022-07-29T05:07:03;100907.56;;;17.19;69.46
31911;BME280;18457;52.432;16.914;2022-07-29T05:09:35;100902.63;;;17.36;68.59
31911;BME280;18457;52.432;16.914;2022-07-29T05:12:08;100902.89;;;17.47;68.21
31911;BME280;18457;52.432;16.914;2022-07-29T05:14:42;100894.41;;;17.57;67.83
31911;BME280;18457;52.432;16.914;2022-07-29T05:17:14;100892.37;;;17.58;67.80
31911;BME280;18457;52.432;16.914;2022-07-29T05:19:46;100889.73;;;17.60;67.69
31911;BME280;18457;52.432;16.914;2022-07-29T05:22:18;100894.38;;;17.74;67.22
31911;BME280;18457;52.432;16.914;2022-07-29T05:24:50;100891.86;;;17.77;67.03
31911;BME280;18457;52.432;16.914;2022-07-29T05:27:22;100893.86;;;17.77;67.09
31911;BME280;18457;52.432;16.914;2022-07-29T05:29:54;100895.14;;;17.81;66.94
31911;BME280;18457;52.432;16.914;2022-07-29T05:32:27;100898.91;;;17.91;66.53
31911;BME280;18457;52.432;16.914;2022-07-29T05:34:58;100900.71;;;17.99;66.10
31911;BME280;18457;52.432;16.914;2022-07-29T05:37:30;100905.34;;;18.05;65.93
31911;BME280;18457;52.432;16.914;2022-07-29T05:40:02;100904.03;;;17.98;66.07
31911;BME280;18457;52.432;16.914;2022-07-29T05:42:34;100907.41;;;18.08;65.84
31911;BME280;18457;52.432;16.914;2022-07-29T05:45:10;100906.45;;;18.16;65.76
31911;BME280;18457;52.432;16.914;2022-07-29T05:47:42;100905.96;;;18.27;65.27
31911;BME280;18457;52.432;16.914;2022-07-29T05:50:14;100907.19;;;18.36;64.93
31911;BME280;18457;52.432;16.914;2022-07-29T05:52:46;100906.27;;;18.40;64.86
31911;BME280;18457;52.432;16.914;2022-07-29T05:55:19;100901.21;;;18.50;64.51
31911;BME280;18457;52.432;16.914;2022-07-29T05:57:53;100904.38;;;18.53;64.75
31911;BME280;18457;52.432;16.914;2022-07-29T06:00:24;100902.11;;;18.54;64.14
31911;BME280;18457;52.432;16.914;2022-07-29T06:02:58;100905.20;;;18.66;63.75
31911;BME280;18457;52.432;16.914;2022-07-29T06:05:30;100904.75;;;18.68;63.42
31911;BME280;18457;52.432;16.914;2022-07-29T06:08:02;100904.80;;;18.74;63.09
31911;BME280;18457;52.432;16.914;2022-07-29T06:10:37;100903.17;;;18.80;62.61
31911;BME280;18457;52.432;16.914;2022-07-29T06:13:08;100898.20;;;18.92;62.59
31911;BME280;18457;52.432;16.914;2022-07-29T06:15:41;100897.36;;;18.98;62.31
31911;BME280;18457;52.432;16.914;2022-07-29T06:18:13;100891.98;;;19.06;62.11
31911;BME280;18457;52.432;16.914;2022-07-29T06:20:45;100888.40;;;19.11;61.98
31911;BME280;18457;52.432;16.914;2022-07-29T06:23:16;100893.80;;;19.24;61.65
31911;BME280;18457;52.432;16.914;2022-07-29T06:25:48;100894.02;;;19.27;61.31
31911;BME280;18457;52.432;16.914;2022-07-29T06:28:20;100895.77;;;19.36;60.79
31911;BME280;18457;52.432;16.914;2022-07-29T06:30:52;100896.86;;;19.46;60.63
31911;BME280;18457;52.432;16.914;2022-07-29T06:33:24;100897.08;;;19.53;59.95
31911;BME280;18457;52.432;16.914;2022-07-29T06:35:56;100895.05;;;19.60;59.87
31911;BME280;18457;52.432;16.914;2022-07-29T06:38:28;100899.73;;;19.71;59.09
31911;BME280;18457;52.432;16.914;2022-07-29T06:41:10;100900.38;;;19.83;58.79
31911;BME280;18457;52.432;16.914;2022-07-29T06:43:46;100906.24;;;19.90;58.75
31911;BME280;18457;52.432;16.914;2022-07-29T06:46:24;100904.64;;;19.99;58.32
31911;BME280;18457;52.432;16.914;2022-07-29T06:48:56;100902.78;;;20.09;58.11
31911;BME280;18457;52.432;16.914;2022-07-29T06:51:28;100905.14;;;20.20;57.88
31911;BME280;18457;52.432;16.914;2022-07-29T06:54:00;100899.42;;;20.34;56.85
31911;BME280;18457;52.432;16.914;2022-07-29T06:56:34;100894.98;;;20.41;55.96
31911;BME280;18457;52.432;16.914;2022-07-29T06:59:11;100898.39;;;20.52;55.82
31911;BME280;18457;52.432;16.914;2022-07-29T07:01:44;100896.77;;;20.57;55.29
31911;BME280;18457;52.432;16.914;2022-07-29T07:04:16;100898.74;;;20.71;55.50
31911;BME280;18457;52.432;16.914;2022-07-29T07:06:48;100895.88;;;20.85;54.55
31911;BME280;18457;52.432;16.914;2022-07-29T07:09:20;100896.19;;;21.02;54.17
31911;BME280;18457;52.432;16.914;2022-07-29T07:11:52;100891.73;;;21.18;53.32
31911;BME280;18457;52.432;16.914;2022-07-29T07:14:24;100885.23;;;21.31;52.80
31911;BME280;18457;52.432;16.914;2022-07-29T07:16:57;100882.50;;;21.43;52.63
31911;BME280;18457;52.432;16.914;2022-07-29T07:19:31;100885.19;;;21.62;51.91
31911;BME280;18457;52.432;16.914;2022-07-29T07:22:02;100880.27;;;21.79;51.45
31911;BME280;18457;52.432;16.914;2022-07-29T07:24:34;100879.89;;;21.94;51.04
31911;BME280;18457;52.432;16.914;2022-07-29T07:27:06;100877.60;;;22.06;50.61
31911;BME280;18457;52.432;16.914;2022-07-29T07:29:38;100874.30;;;22.12;50.12
31911;BME280;18457;52.432;16.914;2022-07-29T07:32:15;100879.55;;;22.11;49.09
31911;BME280;18457;52.432;16.914;2022-07-29T07:34:47;100877.14;;;22.11;49.11
31911;BME280;18457;52.432;16.914;2022-07-29T07:37:19;100877.09;;;22.11;48.76
31911;BME280;18457;52.432;16.914;2022-07-29T07:39:51;100879.94;;;22.21;48.49
31911;BME280;18457;52.432;16.914;2022-07-29T07:42:23;100885.13;;;22.29;49.08
31911;BME280;18457;52.432;16.914;2022-07-29T07:44:55;100883.41;;;22.33;48.81
31911;BME280;18457;52.432;16.914;2022-07-29T07:47:44;100885.07;;;22.33;48.40
31911;BME280;18457;52.432;16.914;2022-07-29T07:50:15;100885.83;;;22.38;48.46
31911;BME280;18457;52.432;16.914;2022-07-29T07:52:51;100885.58;;;22.39;48.46
31911;BME280;18457;52.432;16.914;2022-07-29T07:55:23;100886.34;;;22.44;47.90
31911;BME280;18457;52.432;16.914;2022-07-29T07:57:55;100885.75;;;22.53;47.69
31911;BME280;18457;52.432;16.914;2022-07-29T08:00:27;100887.24;;;22.50;47.90
31911;BME280;18457;52.432;16.914;2022-07-29T08:02:59;100885.55;;;22.48;47.51
31911;BME280;18457;52.432;16.914;2022-07-29T08:05:31;100885.70;;;22.48;47.27
31911;BME280;18457;52.432;16.914;2022-07-29T08:08:04;100889.77;;;22.48;47.39
31911;BME280;18457;52.432;16.914;2022-07-29T08:10:36;100888.71;;;22.53;47.48
31911;BME280;18457;52.432;16.914;2022-07-29T08:13:28;100889.40;;;22.54;47.48
31911;BME280;18457;52.432;16.914;2022-07-29T08:16:01;100895.09;;;22.71;47.67
31911;BME280;18457;52.432;16.914;2022-07-29T08:18:44;100899.11;;;22.75;47.30
31911;BME280;18457;52.432;16.914;2022-07-29T08:21:17;100899.58;;;22.81;47.19
31911;BME280;18457;52.432;16.914;2022-07-29T08:23:50;100900.75;;;22.83;47.33
31911;BME280;18457;52.432;16.914;2022-07-29T08:26:32;100904.77;;;22.89;46.73
31911;BME280;18457;52.432;16.914;2022-07-29T08:29:04;100905.61;;;22.95;46.92
31911;BME280;18457;52.432;16.914;2022-07-29T08:31:35;100908.15;;;23.01;46.48
31911;BME280;18457;52.432;16.914;2022-07-29T08:34:07;100905.95;;;23.01;46.47
31911;BME280;18457;52.432;16.914;2022-07-29T08:36:39;100914.45;;;23.06;46.12
31911;BME280;18457;52.432;16.914;2022-07-29T08:39:11;100913.19;;;23.03;45.79
31911;BME280;18457;52.432;16.914;2022-07-29T08:41:43;100905.05;;;23.12;46.10
31911;BME280;18457;52.432;16.914;2022-07-29T08:44:26;100913.42;;;23.13;45.97
31911;BME280;18457;52.432;16.914;2022-07-29T08:47:01;100908.13;;;23.10;45.61
31911;BME280;18457;52.432;16.914;2022-07-29T08:49:35;100909.63;;;23.17;45.27
31911;BME280;18457;52.432;16.914;2022-07-29T08:52:11;100906.14;;;23.20;45.28
31911;BME280;18457;52.432;16.914;2022-07-29T08:54:45;100908.17;;;23.20;45.35
31911;BME280;18457;52.432;16.914;2022-07-29T08:57:18;100907.85;;;23.24;45.19
31911;BME280;18457;52.432;16.914;2022-07-29T08:59:51;100909.20;;;23.29;45.20
31911;BME280;18457;52.432;16.914;2022-07-29T09:02:25;100905.41;;;23.31;44.88
31911;BME280;18457;52.432;16.914;2022-07-29T09:05:01;100908.91;;;23.22;44.31
31911;BME280;18457;52.432;16.914;2022-07-29T09:07:33;100907.68;;;23.30;44.66
31911;BME280;18457;52.432;16.914;2022-07-29T09:10:08;100913.11;;;23.37;44.39
31911;BME280;18457;52.432;16.914;2022-07-29T09:12:40;100912.40;;;23.42;44.19
31911;BME280;18457;52.432;16.914;2022-07-29T09:15:12;100913.63;;;23.46;44.30
31911;BME280;18457;52.432;16.914;2022-07-29T09:17:46;100913.98;;;23.51;44.16
31911;BME280;18457;52.432;16.914;2022-07-29T09:20:20;100911.92;;;23.57;43.84
31911;BME280;18457;52.432;16.914;2022-07-29T09:22:53;100907.08;;;23.70;43.78
31911;BME280;18457;52.432;16.914;2022-07-29T09:25:35;100906.33;;;23.78;43.61
31911;BME280;18457;52.432;16.914;2022-07-29T09:28:09;100906.50;;;23.81;43.29
31911;BME280;18457;52.432;16.914;2022-07-29T09:30:51;100910.15;;;23.89;43.08
31911;BME280;18457;52.432;16.914;2022-07-29T09:33:24;100910.87;;;23.97;42.93
31911;BME280;18457;52.432;16.914;2022-07-29T09:36:04;100910.36;;;23.91;42.38
31911;BME280;18457;52.432;16.914;2022-07-29T09:38:37;100906.20;;;23.90;42.28
31911;BME280;18457;52.432;16.914;2022-07-29T09:41:09;100902.38;;;23.92;42.23
31911;BME280;18457;52.432;16.914;2022-07-29T09:43:41;100899.80;;;23.92;42.55
31911;BME280;18457;52.432;16.914;2022-07-29T09:46:24;100899.83;;;24.02;42.54
31911;BME280;18457;52.432;16.914;2022-07-29T09:49:09;100900.18;;;24.00;42.43
31911;BME280;18457;52.432;16.914;2022-07-29T09:51:42;100898.77;;;24.01;42.52
31911;BME280;18457;52.432;16.914;2022-07-29T09:54:24;100895.09;;;24.01;42.26
31911;BME280;18457;52.432;16.914;2022-07-29T09:56:56;100888.20;;;23.92;42.08
31911;BME280;18457;52.432;16.914;2022-07-29T09:59:28;100888.77;;;23.97;41.95
31911;BME280;18457;52.432;16.914;2022-07-29T10:02:00;100884.80;;;24.00;41.81
31911;BME280;18457;52.432;16.914;2022-07-29T10:04:42;100882.63;;;24.00;41.96
31911;BME280;18457;52.432;16.914;2022-07-29T10:07:14;100884.55;;;24.01;42.10
31911;BME280;18457;52.432;16.914;2022-07-29T10:09:54;100880.58;;;24.00;41.90
31911;BME280;18457;52.432;16.914;2022-07-29T10:12:26;100877.98;;;24.05;42.16
31911;BME280;18457;52.432;16.914;2022-07-29T10:14:58;100885.17;;;24.16;42.27
31911;BME280;18457;52.432;16.914;2022-07-29T10:17:30;100882.99;;;24.15;41.80
31911;BME280;18457;52.432;16.914;2022-07-29T10:20:05;100879.80;;;24.13;41.90
31911;BME280;18457;52.432;16.914;2022-07-29T10:22:42;100879.05;;;24.24;41.19
31911;BME280;18457;52.432;16.914;2022-07-29T10:25:24;100878.80;;;24.62;41.09
31911;BME280;18457;52.432;16.914;2022-07-29T10:27:56;100873.13;;;25.00;40.50
31911;BME280;18457;52.432;16.914;2022-07-29T10:30:27;100873.77;;;25.42;39.82
31911;BME280;18457;52.432;16.914;2022-07-29T10:33:14;100868.17;;;25.54;38.91
31911;BME280;18457;52.432;16.914;2022-07-29T10:36:10;100862.61;;;25.84;38.77
31911;BME280;18457;52.432;16.914;2022-07-29T10:38:52;100852.85;;;26.09;38.09
31911;BME280;18457;52.432;16.914;2022-07-29T10:41:39;100855.36;;;26.17;37.48
31911;BME280;18457;52.432;16.914;2022-07-29T10:44:18;100861.89;;;26.30;36.80
31911;BME280;18457;52.432;16.914;2022-07-29T10:47:20;100860.92;;;26.48;36.50
31911;BME280;18457;52.432;16.914;2022-07-29T10:50:01;100854.11;;;26.69;36.40
31911;BME280;18457;52.432;16.914;2022-07-29T10:52:56;100860.05;;;26.83;35.96
31911;BME280;18457;52.432;16.914;2022-07-29T10:55:36;100848.77;;;26.83;35.51
31911;BME280;18457;52.432;16.914;2022-07-29T10:58:15;100846.43;;;26.79;35.52
31911;BME280;18457;52.432;16.914;2022-07-29T11:00:49;100849.50;;;26.98;35.43
31911;BME280;18457;52.432;16.914;2022-07-29T11:09:33;100846.38;;;27.65;34.48
31911;BME280;18457;52.432;16.914;2022-07-29T11:12:48;100848.91;;;27.47;34.35
31911;BME280;18457;52.432;16.914;2022-07-29T11:15:22;100845.36;;;27.62;34.51
31911;BME280;18457;52.432;16.914;2022-07-29T11:18:10;100843.00;;;27.97;33.89
31911;BME280;18457;52.432;16.914;2022-07-29T11:21:04;100852.90;;;28.03;33.15
31911;BME280;18457;52.432;16.914;2022-07-29T11:24:17;100845.47;;;28.19;32.57
31911;BME280;18457;52.432;16.914;2022-07-29T11:27:15;100844.07;;;28.34;32.16
31911;BME280;18457;52.432;16.914;2022-07-29T11:29:54;100840.27;;;28.47;32.45
31911;BME280;18457;52.432;16.914;2022-07-29T11:32:37;100843.65;;;28.39;32.51
31911;BME280;18457;52.432;16.914;2022-07-29T11:35:15;100844.19;;;28.58;31.83
31911;BME280;18457;52.432;16.914;2022-07-29T11:38:24;100842.23;;;28.34;31.80
31911;BME280;18457;52.432;16.914;2022-07-29T11:41:23;100842.69;;;28.43;31.91
31911;BME280;18457;52.432;16.914;2022-07-29T11:43:57;100840.60;;;28.54;31.93
31911;BME280;18457;52.432;16.914;2022-07-29T11:46:48;100835.86;;;28.22;31.88
31911;BME280;18457;52.432;16.914;2022-07-29T11:49:25;100832.77;;;28.40;31.75
31911;BME280;18457;52.432;16.914;2022-07-29T11:52:02;100832.64;;;28.43;31.46
31911;BME280;18457;52.432;16.914;2022-07-29T11:54:43;100826.31;;;28.35;31.30
31911;BME280;18457;52.432;16.914;2022-07-29T11:57:30;100820.23;;;28.55;30.77
31911;BME280;18457;52.432;16.914;2022-07-29T12:00:09;100822.45;;;28.67;30.88
31911;BME280;18457;52.432;16.914;2022-07-29T12:02:44;100822.91;;;29.04;30.63
31911;BME280;18457;52.432;16.914;2022-07-29T12:05:18;100823.86;;;29.09;30.47
31911;BME280;18457;52.432;16.914;2022-07-29T12:08:10;100818.65;;;28.98;30.38
31911;BME280;18457;52.432;16.914;2022-07-29T12:10:44;100818.85;;;28.91;30.54
31911;BME280;18457;52.432;16.914;2022-07-29T12:13:18;100823.10;;;28.98;30.44
31911;BME280;18457;52.432;16.914;2022-07-29T12:15:56;100818.67;;;28.88;30.14
31911;BME280;18457;52.432;16.914;2022-07-29T12:18:29;100810.69;;;28.80;30.51
31911;BME280;18457;52.432;16.914;2022-07-29T12:21:02;100809.05;;;28.85;30.71
31911;BME280;18457;52.432;16.914;2022-07-29T12:23:34;100807.42;;;28.94;30.36
31911;BME280;18457;52.432;16.914;2022-07-29T12:26:07;100797.08;;;29.01;30.16
31911;BME280;18457;52.432;16.914;2022-07-29T12:28:51;100796.21;;;29.22;29.75
31911;BME280;18457;52.432;16.914;2022-07-29T12:31:25;100792.90;;;29.22;29.54
31911;BME280;18457;52.432;16.914;2022-07-29T12:34:15;100792.36;;;29.21;29.31
31911;BME280;18457;52.432;16.914;2022-07-29T12:36:47;100791.52;;;29.38;29.20
31911;BME280;18457;52.432;16.914;2022-07-29T12:39:20;100792.29;;;29.38;29.01
31911;BME280;18457;52.432;16.914;2022-07-29T12:41:51;100785.14;;;29.11;29.38
31911;BME280;18457;52.432;16.914;2022-07-29T12:47:22;100780.98;;;29.29;29.07
31911;BME280;18457;52.432;16.914;2022-07-29T12:50:09;100779.66;;;29.22;29.28
31911;BME280;18457;52.432;16.914;2022-07-29T12:52:41;100770.16;;;28.85;30.32
31911;BME280;18457;52.432;16.914;2022-07-29T12:55:13;100769.46;;;28.37;31.20
31911;BME280;18457;52.432;16.914;2022-07-29T12:57:50;100766.59;;;28.68;30.96
31911;BME280;18457;52.432;16.914;2022-07-29T13:00:24;100764.24;;;28.92;30.88
31911;BME280;18457;52.432;16.914;2022-07-29T13:02:58;100770.09;;;29.09;30.25
31911;BME280;18457;52.432;16.914;2022-07-29T13:05:45;100768.21;;;29.13;30.29
31911;BME280;18457;52.432;16.914;2022-07-29T13:08:19;100766.98;;;29.28;30.20
31911;BME280;18457;52.432;16.914;2022-07-29T13:10:53;100765.45;;;29.23;30.06
31911;BME280;18457;52.432;16.914;2022-07-29T13:13:25;100762.35;;;29.12;30.33
31911;BME280;18457;52.432;16.914;2022-07-29T13:16:06;100761.33;;;29.07;30.29
31911;BME280;18457;52.432;16.914;2022-07-29T13:18:38;100760.41;;;29.15;30.05
31911;BME280;18457;52.432;16.914;2022-07-29T13:21:15;100758.15;;;29.21;29.95
31911;BME280;18457;52.432;16.914;2022-07-29T13:23:48;100752.31;;;28.95;30.08
31911;BME280;18457;52.432;16.914;2022-07-29T13:26:20;100752.89;;;28.69;30.26
31911;BME280;18457;52.432;16.914;2022-07-29T13:28:52;100750.23;;;28.44;30.30
31911;BME280;18457;52.432;16.914;2022-07-29T13:31:26;100747.22;;;28.54;30.17
31911;BME280;18457;52.432;16.914;2022-07-29T13:33:58;100748.32;;;29.07;30.13